sensor_id;sensor_type;location;lat;lon;timestamp;pressure;altitude;pressure_sealevel;temperature;humidity
27840;BME280;15207;42.182;24.308;2023-04-10T00:02:17;99420.94;;;10.66;58.90
27840;BME280;15207;42.182;24.308;2023-04-10T00:04:43;99411.50;;;10.37;61.73
27840;BME280;15207;42.182;24.308;2023-04-10T00:07:09;99411.59;;;10.71;63.07
27840;BME280;15207;42.182;24.308;2023-04-10T00:09:35;99404.16;;;10.52;61.18
27840;BME280;15207;42.182;24.308;2023-04-10T00:12:00;99401.09;;;10.45;60.93
27840;BME280;15207;42.182;24.308;2023-04-10T00:14:26;99404.97;;;10.53;60.46
27840;BME280;15207;42.182;24.308;2023-04-10T00:16:51;99399.19;;;10.35;61.24
27840;BME280;15207;42.182;24.308;2023-04-10T00:19:17;99401.22;;;10.19;65.55
27840;BME280;15207;42.182;24.308;2023-04-10T00:21:42;99396.47;;;10.12;66.24
27840;BME280;15207;42.182;24.308;2023-04-10T00:24:08;99390.84;;;10.03;65.58
27840;BME280;15207;42.182;24.308;2023-04-10T00:26:34;99390.53;;;9.95;65.97
27840;BME280;15207;42.182;24.308;2023-04-10T00:29:01;99387.66;;;9.98;65.38
27840;BME280;15207;42.182;24.308;2023-04-10T00:31:27;99384.06;;;9.86;65.36
27840;BME280;15207;42.182;24.308;2023-04-10T00:33:52;99378.91;;;9.72;65.99
27840;BME280;15207;42.182;24.308;2023-04-10T00:36:18;99379.66;;;10.10;65.04
27840;BME280;15207;42.182;24.308;2023-04-10T00:38:44;99376.19;;;9.96;64.48
27840;BME280;15207;42.182;24.308;2023-04-10T00:41:10;99372.28;;;9.89;64.60
27840;BME280;15207;42.182;24.308;2023-04-10T00:43:35;99369.84;;;9.86;64.61
27840;BME280;15207;42.182;24.308;2023-04-10T00:46:01;99369.16;;;9.71;64.42
27840;BME280;15207;42.182;24.308;2023-04-10T00:48:28;99371.66;;;9.85;64.68
27840;BME280;15207;42.182;24.308;2023-04-10T00:50:55;99360.97;;;9.85;64.74
27840;BME280;15207;42.182;24.308;2023-04-10T00:53:20;99359.59;;;9.79;65.54
27840;BME280;15207;42.182;24.308;2023-04-10T00:55:47;99354.09;;;9.70;65.78
27840;BME280;15207;42.182;24.308;2023-04-10T00:58:13;99351.63;;;9.66;65.96
27840;BME280;15207;42.182;24.308;2023-04-10T01:00:40;99359.38;;;9.58;65.99
27840;BME280;15207;42.182;24.308;2023-04-10T01:03:08;99352.63;;;9.28;68.21
27840;BME280;15207;42.182;24.308;2023-04-10T01:05:40;99351.75;;;9.03;70.05
27840;BME280;15207;42.182;24.308;2023-04-10T01:08:25;99353.53;;;9.16;70.88
27840;BME280;15207;42.182;24.308;2023-04-10T01:11:02;99343.94;;;9.13;69.75
27840;BME280;15207;42.182;24.308;2023-04-10T01:13:42;99348.34;;;9.01;70.78
27840;BME280;15207;42.182;24.308;2023-04-10T01:16:21;99351.22;;;8.98;70.72
27840;BME280;15207;42.182;24.308;2023-04-10T01:18:58;99359.91;;;9.02;71.31
27840;BME280;15207;42.182;24.308;2023-04-10T01:21:28;99351.44;;;9.08;71.86
27840;BME280;15207;42.182;24.308;2023-04-10T01:29:24;99357.31;;;9.00;73.56
27840;BME280;15207;42.182;24.308;2023-04-10T01:32:01;99353.06;;;8.97;72.76
27840;BME280;15207;42.182;24.308;2023-04-10T01:34:57;99355.50;;;9.00;72.34
27840;BME280;15207;42.182;24.308;2023-04-10T01:37:30;99350.03;;;9.02;70.88
27840;BME280;15207;42.182;24.308;2023-04-10T01:40:02;99350.50;;;8.96;70.82
27840;BME280;15207;42.182;24.308;2023-04-10T01:42:30;99346.00;;;8.83;71.09
27840;BME280;15207;42.182;24.308;2023-04-10T01:44:57;99356.41;;;8.75;71.13
27840;BME280;15207;42.182;24.308;2023-04-10T01:47:24;99356.16;;;8.39;72.99
27840;BME280;15207;42.182;24.308;2023-04-10T01:49:52;99346.34;;;8.14;75.75
27840;BME280;15207;42.182;24.308;2023-04-10T01:52:19;99348.53;;;7.94;77.45
27840;BME280;15207;42.182;24.308;2023-04-10T01:54:46;99345.84;;;7.81;78.55
27840;BME280;15207;42.182;24.308;2023-04-10T01:57:14;99351.47;;;7.76;79.41
27840;BME280;15207;42.182;24.308;2023-04-10T01:59:40;99347.19;;;7.74;78.73
27840;BME280;15207;42.182;24.308;2023-04-10T02:02:05;99347.63;;;7.67;79.77
27840;BME280;15207;42.182;24.308;2023-04-10T02:04:32;99349.63;;;7.64;80.38
27840;BME280;15207;42.182;24.308;2023-04-10T02:12:03;99340.25;;;7.71;79.83
27840;BME280;15207;42.182;24.308;2023-04-10T02:14:32;99343.78;;;7.72;80.86
27840;BME280;15207;42.182;24.308;2023-04-10T02:17:00;99347.63;;;7.67;81.15
27840;BME280;15207;42.182;24.308;2023-04-10T02:19:27;99345.25;;;7.63;81.32
27840;BME280;15207;42.182;24.308;2023-04-10T02:21:56;99348.81;;;7.49;82.06
27840;BME280;15207;42.182;24.308;2023-04-10T02:24:23;99342.75;;;7.47;82.47
27840;BME280;15207;42.182;24.308;2023-04-10T02:26:51;99349.97;;;7.45;82.66
27840;BME280;15207;42.182;24.308;2023-04-10T02:29:17;99344.19;;;7.38;82.51
27840;BME280;15207;42.182;24.308;2023-04-10T02:31:43;99353.22;;;7.35;82.35
27840;BME280;15207;42.182;24.308;2023-04-10T02:34:09;99348.88;;;7.34;82.26
27840;BME280;15207;42.182;24.308;2023-04-10T02:36:38;99350.88;;;7.31;81.96
27840;BME280;15207;42.182;24.308;2023-04-10T02:39:05;99352.53;;;7.19;81.92
27840;BME280;15207;42.182;24.308;2023-04-10T02:41:30;99341.72;;;7.07;81.81
27840;BME280;15207;42.182;24.308;2023-04-10T02:43:56;99336.00;;;6.99;81.67
27840;BME280;15207;42.182;24.308;2023-04-10T02:46:22;99338.09;;;6.94;81.95
27840;BME280;15207;42.182;24.308;2023-04-10T02:48:47;99339.53;;;6.99;81.43
27840;BME280;15207;42.182;24.308;2023-04-10T02:51:13;99339.06;;;6.93;81.88
27840;BME280;15207;42.182;24.308;2023-04-10T02:53:38;99337.16;;;6.95;81.50
27840;BME280;15207;42.182;24.308;2023-04-10T02:56:04;99348.75;;;6.94;81.06
27840;BME280;15207;42.182;24.308;2023-04-10T02:58:33;99342.41;;;6.82;81.63
27840;BME280;15207;42.182;24.308;2023-04-10T03:01:00;99340.22;;;6.74;82.10
27840;BME280;15207;42.182;24.308;2023-04-10T03:03:26;99342.69;;;6.77;81.94
27840;BME280;15207;42.182;24.308;2023-04-10T03:05:52;99332.53;;;6.84;81.60
27840;BME280;15207;42.182;24.308;2023-04-10T03:08:17;99337.44;;;6.90;81.49
27840;BME280;15207;42.182;24.308;2023-04-10T03:10:44;99331.66;;;6.83;81.59
27840;BME280;15207;42.182;24.308;2023-04-10T03:13:10;99332.53;;;6.84;81.85
27840;BME280;15207;42.182;24.308;2023-04-10T03:15:36;99332.72;;;6.81;82.38
27840;BME280;15207;42.182;24.308;2023-04-10T03:18:03;99325.84;;;6.91;82.38
27840;BME280;15207;42.182;24.308;2023-04-10T03:20:34;99331.09;;;6.93;82.18
27840;BME280;15207;42.182;24.308;2023-04-10T03:23:00;99328.09;;;6.97;82.10
27840;BME280;15207;42.182;24.308;2023-04-10T03:25:26;99340.50;;;6.98;81.96
27840;BME280;15207;42.182;24.308;2023-04-10T03:27:51;99332.66;;;7.10;82.12
27840;BME280;15207;42.182;24.308;2023-04-10T03:30:17;99340.53;;;7.26;81.65
27840;BME280;15207;42.182;24.308;2023-04-10T03:32:42;99334.34;;;7.25;82.06
27840;BME280;15207;42.182;24.308;2023-04-10T03:35:09;99334.53;;;7.22;82.46
27840;BME280;15207;42.182;24.308;2023-04-10T03:37:35;99326.34;;;7.25;83.05
27840;BME280;15207;42.182;24.308;2023-04-10T03:40:04;99334.25;;;7.27;83.18
27840;BME280;15207;42.182;24.308;2023-04-10T03:42:31;99339.03;;;7.22;83.16
27840;BME280;15207;42.182;24.308;2023-04-10T03:44:56;99343.56;;;7.20;83.64
27840;BME280;15207;42.182;24.308;2023-04-10T03:47:22;99334.34;;;7.25;83.60
27840;BME280;15207;42.182;24.308;2023-04-10T03:49:47;99350.56;;;7.35;82.97
27840;BME280;15207;42.182;24.308;2023-04-10T03:52:13;99343.91;;;7.43;82.64
27840;BME280;15207;42.182;24.308;2023-04-10T03:54:38;99338.25;;;7.47;82.32
27840;BME280;15207;42.182;24.308;2023-04-10T03:57:04;99338.06;;;7.50;81.81
27840;BME280;15207;42.182;24.308;2023-04-10T03:59:30;99345.56;;;7.58;81.18
27840;BME280;15207;42.182;24.308;2023-04-10T04:01:55;99339.25;;;7.59;81.71
27840;BME280;15207;42.182;24.308;2023-04-10T04:04:21;99341.50;;;7.65;81.78
27840;BME280;15207;42.182;24.308;2023-04-10T04:06:47;99338.91;;;7.78;81.17
27840;BME280;15207;42.182;24.308;2023-04-10T04:09:13;99338.50;;;7.85;80.90
27840;BME280;15207;42.182;24.308;2023-04-10T04:11:38;99334.97;;;7.97;80.99
27840;BME280;15207;42.182;24.308;2023-04-10T04:14:03;99344.84;;;8.10;80.85
27840;BME280;15207;42.182;24.308;2023-04-10T04:16:29;99341.53;;;8.06;81.50
27840;BME280;15207;42.182;24.308;2023-04-10T04:18:55;99337.78;;;8.09;81.53
27840;BME280;15207;42.182;24.308;2023-04-10T04:21:20;99334.59;;;8.16;81.17
27840;BME280;15207;42.182;24.308;2023-04-10T04:23:46;99337.38;;;8.28;79.79
27840;BME280;15207;42.182;24.308;2023-04-10T04:26:12;99342.91;;;8.25;79.11
27840;BME280;15207;42.182;24.308;2023-04-10T04:28:37;99339.50;;;8.23;80.25
27840;BME280;15207;42.182;24.308;2023-04-10T04:31:03;99340.47;;;8.22;80.53
27840;BME280;15207;42.182;24.308;2023-04-10T04:33:29;99344.22;;;8.32;80.80
27840;BME280;15207;42.182;24.308;2023-04-10T04:35:56;99350.19;;;8.36;80.56
27840;BME280;15207;42.182;24.308;2023-04-10T04:38:22;99345.31;;;8.55;79.39
27840;BME280;15207;42.182;24.308;2023-04-10T04:40:47;99347.09;;;8.68;77.74
27840;BME280;15207;42.182;24.308;2023-04-10T04:43:12;99350.31;;;8.73;77.73
27840;BME280;15207;42.182;24.308;2023-04-10T04:45:38;99358.44;;;8.71;77.22
27840;BME280;15207;42.182;24.308;2023-04-10T04:48:03;99350.00;;;8.78;77.16
27840;BME280;15207;42.182;24.308;2023-04-10T04:50:29;99349.00;;;8.92;75.60
27840;BME280;15207;42.182;24.308;2023-04-10T04:52:54;99342.91;;;9.03;73.47
27840;BME280;15207;42.182;24.308;2023-04-10T04:55:20;99344.50;;;9.05;73.38
27840;BME280;15207;42.182;24.308;2023-04-10T04:57:45;99342.25;;;9.12;72.54
27840;BME280;15207;42.182;24.308;2023-04-10T05:00:11;99345.75;;;9.12;71.10
27840;BME280;15207;42.182;24.308;2023-04-10T05:02:37;99346.16;;;9.19;70.54
27840;BME280;15207;42.182;24.308;2023-04-10T05:05:02;99347.66;;;9.23;70.18
27840;BME280;15207;42.182;24.308;2023-04-10T05:07:29;99345.91;;;9.35;69.88
27840;BME280;15207;42.182;24.308;2023-04-10T05:09:55;99353.56;;;9.40;69.15
27840;BME280;15207;42.182;24.308;2023-04-10T05:12:21;99352.78;;;9.51;68.49
27840;BME280;15207;42.182;24.308;2023-04-10T05:14:46;99359.16;;;9.61;67.58
27840;BME280;15207;42.182;24.308;2023-04-10T05:17:12;99360.78;;;9.75;66.08
27840;BME280;15207;42.182;24.308;2023-04-10T05:19:39;99358.50;;;9.82;65.70
27840;BME280;15207;42.182;24.308;2023-04-10T05:22:05;99364.84;;;9.81;66.59
27840;BME280;15207;42.182;24.308;2023-04-10T05:24:31;99360.00;;;9.86;66.75
27840;BME280;15207;42.182;24.308;2023-04-10T05:26:56;99354.44;;;9.89;64.86
27840;BME280;15207;42.182;24.308;2023-04-10T05:29:22;99363.91;;;9.93;65.31
27840;BME280;15207;42.182;24.308;2023-04-10T05:31:49;99361.88;;;9.97;64.85
27840;BME280;15207;42.182;24.308;2023-04-10T05:34:15;99366.13;;;10.00;64.58
27840;BME280;15207;42.182;24.308;2023-04-10T05:36:42;99362.13;;;10.05;64.99
27840;BME280;15207;42.182;24.308;2023-04-10T05:39:08;99358.75;;;10.15;65.33
27840;BME280;15207;42.182;24.308;2023-04-10T05:41:34;99369.84;;;10.22;64.33
27840;BME280;15207;42.182;24.308;2023-04-10T05:43:59;99372.75;;;10.18;63.40
27840;BME280;15207;42.182;24.308;2023-04-10T05:46:25;99369.47;;;10.26;63.84
27840;BME280;15207;42.182;24.308;2023-04-10T05:48:50;99368.13;;;10.21;64.85
27840;BME280;15207;42.182;24.308;2023-04-10T05:51:16;99360.31;;;10.06;65.01
27840;BME280;15207;42.182;24.308;2023-04-10T05:53:41;99372.88;;;10.17;65.53
27840;BME280;15207;42.182;24.308;2023-04-10T05:56:07;99358.75;;;10.15;65.00
27840;BME280;15207;42.182;24.308;2023-04-10T05:58:33;99366.66;;;10.16;65.72
27840;BME280;15207;42.182;24.308;2023-04-10T06:00:59;99363.78;;;10.31;65.14
27840;BME280;15207;42.182;24.308;2023-04-10T06:03:25;99365.75;;;10.40;65.07
27840;BME280;15207;42.182;24.308;2023-04-10T06:05:55;99364.59;;;10.56;64.58
27840;BME280;15207;42.182;24.308;2023-04-10T06:08:21;99363.38;;;10.71;63.56
27840;BME280;15207;42.182;24.308;2023-04-10T06:10:47;99363.38;;;10.71;64.73
27840;BME280;15207;42.182;24.308;2023-04-10T06:13:13;99364.25;;;10.83;64.35
27840;BME280;15207;42.182;24.308;2023-04-10T06:15:41;99361.19;;;10.77;64.63
27840;BME280;15207;42.182;24.308;2023-04-10T06:18:07;99364.72;;;10.89;63.98
27840;BME280;15207;42.182;24.308;2023-04-10T06:20:33;99366.44;;;10.90;63.43
27840;BME280;15207;42.182;24.308;2023-04-10T06:22:58;99358.38;;;10.90;61.53
27840;BME280;15207;42.182;24.308;2023-04-10T06:25:24;99345.84;;;10.90;61.99
27840;BME280;15207;42.182;24.308;2023-04-10T06:27:50;99356.06;;;11.08;60.65
27840;BME280;15207;42.182;24.308;2023-04-10T06:30:16;99355.72;;;11.13;60.36
27840;BME280;15207;42.182;24.308;2023-04-10T06:32:42;99361.41;;;11.19;60.35
27840;BME280;15207;42.182;24.308;2023-04-10T06:35:08;99359.47;;;11.21;60.56
27840;BME280;15207;42.182;24.308;2023-04-10T06:37:33;99357.13;;;11.28;60.79
27840;BME280;15207;42.182;24.308;2023-04-10T06:40:04;99347.13;;;11.30;60.75
27840;BME280;15207;42.182;24.308;2023-04-10T06:42:30;99356.72;;;11.44;60.09
27840;BME280;15207;42.182;24.308;2023-04-10T06:44:57;99352.44;;;11.53;59.50
27840;BME280;15207;42.182;24.308;2023-04-10T06:47:22;99347.28;;;11.61;59.31
27840;BME280;15207;42.182;24.308;2023-04-10T06:49:48;99353.94;;;11.78;58.13
27840;BME280;15207;42.182;24.308;2023-04-10T06:52:14;99357.81;;;11.86;58.90
27840;BME280;15207;42.182;24.308;2023-04-10T06:54:39;99358.97;;;12.04;59.00
27840;BME280;15207;42.182;24.308;2023-04-10T06:57:05;99351.22;;;12.23;58.37
27840;BME280;15207;42.182;24.308;2023-04-10T06:59:31;99353.81;;;12.34;57.22
27840;BME280;15207;42.182;24.308;2023-04-10T07:01:59;99365.34;;;12.46;55.83
27840;BME280;15207;42.182;24.308;2023-04-10T07:04:24;99354.41;;;12.69;55.94
27840;BME280;15207;42.182;24.308;2023-04-10T07:06:50;99359.06;;;12.88;54.46
27840;BME280;15207;42.182;24.308;2023-04-10T07:09:15;99354.44;;;13.10;53.71
27840;BME280;15207;42.182;24.308;2023-04-10T07:11:41;99356.03;;;13.22;51.40
27840;BME280;15207;42.182;24.308;2023-04-10T07:14:06;99358.69;;;13.64;52.38
27840;BME280;15207;42.182;24.308;2023-04-10T07:16:32;99359.69;;;14.12;50.87
27840;BME280;15207;42.182;24.308;2023-04-10T07:18:58;99361.78;;;14.38;50.00
27840;BME280;15207;42.182;24.308;2023-04-10T07:21:25;99360.13;;;14.75;49.19
27840;BME280;15207;42.182;24.308;2023-04-10T07:23:51;99359.31;;;15.02;47.76
27840;BME280;15207;42.182;24.308;2023-04-10T07:26:17;99358.88;;;15.35;47.54
27840;BME280;15207;42.182;24.308;2023-04-10T07:28:43;99363.06;;;15.47;47.34
27840;BME280;15207;42.182;24.308;2023-04-10T07:31:10;99356.16;;;15.81;46.47
27840;BME280;15207;42.182;24.308;2023-04-10T07:33:37;99357.19;;;15.98;45.16
27840;BME280;15207;42.182;24.308;2023-04-10T07:36:04;99351.13;;;15.86;45.10
27840;BME280;15207;42.182;24.308;2023-04-10T07:38:31;99348.84;;;16.10;44.13
27840;BME280;15207;42.182;24.308;2023-04-10T07:40:57;99356.94;;;16.10;43.01
27840;BME280;15207;42.182;24.308;2023-04-10T07:43:23;99355.16;;;16.00;42.62
27840;BME280;15207;42.182;24.308;2023-04-10T07:45:50;99351.41;;;15.93;42.77
27840;BME280;15207;42.182;24.308;2023-04-10T07:48:16;99342.75;;;16.08;42.46
27840;BME280;15207;42.182;24.308;2023-04-10T07:50:42;99340.13;;;16.43;42.19
27840;BME280;15207;42.182;24.308;2023-04-10T07:53:08;99342.19;;;16.49;42.65
27840;BME280;15207;42.182;24.308;2023-04-10T07:55:42;99337.16;;;16.54;40.58
27840;BME280;15207;42.182;24.308;2023-04-10T07:58:08;99343.97;;;16.13;40.14
27840;BME280;15207;42.182;24.308;2023-04-10T08:00:34;99343.31;;;15.47;40.71
27840;BME280;15207;42.182;24.308;2023-04-10T08:03:01;99341.25;;;15.59;40.78
27840;BME280;15207;42.182;24.308;2023-04-10T08:05:27;99340.03;;;15.07;42.43
27840;BME280;15207;42.182;24.308;2023-04-10T08:07:52;99339.41;;;15.41;42.67
27840;BME280;15207;42.182;24.308;2023-04-10T08:10:18;99333.31;;;15.57;41.59
27840;BME280;15207;42.182;24.308;2023-04-10T08:12:44;99337.94;;;15.65;39.89
27840;BME280;15207;42.182;24.308;2023-04-10T08:15:10;99327.75;;;15.77;39.83
27840;BME280;15207;42.182;24.308;2023-04-10T08:17:36;99324.06;;;15.78;39.91
27840;BME280;15207;42.182;24.308;2023-04-10T08:20:03;99323.22;;;15.59;39.39
27840;BME280;15207;42.182;24.308;2023-04-10T08:22:29;99325.22;;;15.57;39.67
27840;BME280;15207;42.182;24.308;2023-04-10T08:24:55;99327.72;;;15.69;40.30
27840;BME280;15207;42.182;24.308;2023-04-10T08:27:21;99319.38;;;15.80;39.64
27840;BME280;15207;42.182;24.308;2023-04-10T08:29:46;99319.81;;;15.76;39.67
27840;BME280;15207;42.182;24.308;2023-04-10T08:32:12;99321.69;;;15.75;39.53
27840;BME280;15207;42.182;24.308;2023-04-10T08:34:38;99322.59;;;15.66;39.07
27840;BME280;15207;42.182;24.308;2023-04-10T08:37:05;99322.75;;;15.82;40.12
27840;BME280;15207;42.182;24.308;2023-04-10T08:39:33;99314.63;;;16.19;38.88
27840;BME280;15207;42.182;24.308;2023-04-10T08:41:59;99318.28;;;15.73;38.95
27840;BME280;15207;42.182;24.308;2023-04-10T08:44:24;99309.78;;;15.50;39.67
27840;BME280;15207;42.182;24.308;2023-04-10T08:46:50;99310.63;;;15.32;40.38
27840;BME280;15207;42.182;24.308;2023-04-10T08:49:23;99311.16;;;14.89;39.81
27840;BME280;15207;42.182;24.308;2023-04-10T08:51:56;99310.44;;;15.15;39.48
27840;BME280;15207;42.182;24.308;2023-04-10T08:54:32;99300.31;;;14.99;39.77
27840;BME280;15207;42.182;24.308;2023-04-10T08:56:58;99294.50;;;15.40;39.62
27840;BME280;15207;42.182;24.308;2023-04-10T08:59:28;99294.53;;;15.95;38.99
27840;BME280;15207;42.182;24.308;2023-04-10T09:01:55;99297.22;;;16.13;38.44
27840;BME280;15207;42.182;24.308;2023-04-10T09:04:23;99296.91;;;15.80;38.12
27840;BME280;15207;42.182;24.308;2023-04-10T09:06:49;99298.31;;;15.66;37.99
27840;BME280;15207;42.182;24.308;2023-04-10T09:09:14;99293.00;;;15.74;38.00
27840;BME280;15207;42.182;24.308;2023-04-10T09:14:21;99300.53;;;15.34;39.29
27840;BME280;15207;42.182;24.308;2023-04-10T09:16:48;99297.66;;;14.89;39.71
27840;BME280;15207;42.182;24.308;2023-04-10T09:21:54;99284.97;;;15.46;39.07
27840;BME280;15207;42.182;24.308;2023-04-10T09:24:20;99282.09;;;15.11;39.58
27840;BME280;15207;42.182;24.308;2023-04-10T09:26:46;99283.75;;;14.94;40.00
27840;BME280;15207;42.182;24.308;2023-04-10T09:29:12;99281.94;;;14.85;39.85
27840;BME280;15207;42.182;24.308;2023-04-10T09:31:38;99282.34;;;14.90;39.28
27840;BME280;15207;42.182;24.308;2023-04-10T09:34:11;99284.78;;;14.83;39.68
27840;BME280;15207;42.182;24.308;2023-04-10T09:36:38;99289.69;;;14.98;39.98
27840;BME280;15207;42.182;24.308;2023-04-10T09:39:06;99275.56;;;14.86;39.12
27840;BME280;15207;42.182;24.308;2023-04-10T09:41:32;99268.69;;;14.63;39.55
27840;BME280;15207;42.182;24.308;2023-04-10T09:44:06;99272.97;;;14.56;39.25
27840;BME280;15207;42.182;24.308;2023-04-10T09:46:32;99276.34;;;14.58;39.80
27840;BME280;15207;42.182;24.308;2023-04-10T09:48:58;99266.59;;;14.57;39.27
27840;BME280;15207;42.182;24.308;2023-04-10T09:51:28;99267.25;;;14.21;40.55
27840;BME280;15207;42.182;24.308;2023-04-10T09:53:54;99268.88;;;13.94;40.78
27840;BME280;15207;42.182;24.308;2023-04-10T09:56:21;99269.00;;;14.12;41.22
27840;BME280;15207;42.182;24.308;2023-04-10T09:58:47;99264.31;;;14.14;40.69
27840;BME280;15207;42.182;24.308;2023-04-10T10:01:13;99267.72;;;14.17;41.33
27840;BME280;15207;42.182;24.308;2023-04-10T10:03:40;99267.72;;;14.17;44.45
27840;BME280;15207;42.182;24.308;2023-04-10T10:06:06;99260.19;;;14.20;45.25
27840;BME280;15207;42.182;24.308;2023-04-10T10:08:32;99268.44;;;13.99;46.40
27840;BME280;15207;42.182;24.308;2023-04-10T10:10:59;99262.09;;;13.80;47.89
27840;BME280;15207;42.182;24.308;2023-04-10T10:13:40;99272.72;;;13.62;49.02
27840;BME280;15207;42.182;24.308;2023-04-10T10:16:19;99264.94;;;13.69;51.14
27840;BME280;15207;42.182;24.308;2023-04-10T10:19:04;99267.50;;;13.51;51.45
27840;BME280;15207;42.182;24.308;2023-04-10T10:21:31;99271.28;;;13.28;50.76
27840;BME280;15207;42.182;24.308;2023-04-10T10:23:59;99260.94;;;13.33;50.79
27840;BME280;15207;42.182;24.308;2023-04-10T10:26:26;99259.25;;;13.32;50.63
27840;BME280;15207;42.182;24.308;2023-04-10T10:28:55;99254.84;;;13.41;50.38
27840;BME280;15207;42.182;24.308;2023-04-10T10:31:20;99258.72;;;13.48;49.50
27840;BME280;15207;42.182;24.308;2023-04-10T10:33:51;99253.91;;;13.52;49.77
27840;BME280;15207;42.182;24.308;2023-04-10T10:36:18;99253.19;;;13.50;49.65
27840;BME280;15207;42.182;24.308;2023-04-10T10:38:54;99248.94;;;13.67;48.95
27840;BME280;15207;42.182;24.308;2023-04-10T10:41:37;99252.03;;;13.82;49.34
27840;BME280;15207;42.182;24.308;2023-04-10T10:47:16;99248.19;;;13.95;48.91
27840;BME280;15207;42.182;24.308;2023-04-10T10:49:59;99238.38;;;14.13;48.36
27840;BME280;15207;42.182;24.308;2023-04-10T10:57:49;99238.53;;;14.50;45.70
27840;BME280;15207;42.182;24.308;2023-04-10T11:00:22;99231.19;;;14.70;46.09
27840;BME280;15207;42.182;24.308;2023-04-10T11:05:55;99228.72;;;14.87;43.77
27840;BME280;15207;42.182;24.308;2023-04-10T11:13:42;99219.19;;;14.92;44.48
27840;BME280;15207;42.182;24.308;2023-04-10T11:19:01;99228.38;;;14.72;43.50
27840;BME280;15207;42.182;24.308;2023-04-10T11:21:28;99230.66;;;14.66;43.00
27840;BME280;15207;42.182;24.308;2023-04-10T11:29:00;99230.81;;;14.65;44.94
27840;BME280;15207;42.182;24.308;2023-04-10T11:31:26;99221.81;;;14.46;44.49
27840;BME280;15207;42.182;24.308;2023-04-10T11:34:06;99231.91;;;14.34;44.14
27840;BME280;15207;42.182;24.308;2023-04-10T11:36:33;99220.16;;;14.35;44.01
27840;BME280;15207;42.182;24.308;2023-04-10T11:39:08;99225.59;;;14.15;45.64
27840;BME280;15207;42.182;24.308;2023-04-10T11:41:35;99223.16;;;14.32;46.36
27840;BME280;15207;42.182;24.308;2023-04-10T11:44:03;99225.13;;;14.30;46.88
27840;BME280;15207;42.182;24.308;2023-04-10T11:46:30;99230.41;;;14.22;46.45
27840;BME280;15207;42.182;24.308;2023-04-10T11:48:59;99223.75;;;14.16;46.73
27840;BME280;15207;42.182;24.308;2023-04-10T11:51:25;99222.34;;;14.12;47.36
27840;BME280;15207;42.182;24.308;2023-04-10T11:54:10;99225.59;;;14.15;48.13
27840;BME280;15207;42.182;24.308;2023-04-10T11:56:38;99222.44;;;13.82;46.64
27840;BME280;15207;42.182;24.308;2023-04-10T11:59:05;99223.84;;;13.86;47.75
27840;BME280;15207;42.182;24.308;2023-04-10T12:01:38;99224.25;;;13.92;50.88
27840;BME280;15207;42.182;24.308;2023-04-10T12:04:15;99219.75;;;13.82;49.76
27840;BME280;15207;42.182;24.308;2023-04-10T12:06:49;99213.63;;;13.80;50.25
27840;BME280;15207;42.182;24.308;2023-04-10T12:09:17;99200.06;;;13.62;48.19
27840;BME280;15207;42.182;24.308;2023-04-10T12:14:19;99203.63;;;13.53;46.86
27840;BME280;15207;42.182;24.308;2023-04-10T12:16:45;99198.38;;;13.71;48.06
27840;BME280;15207;42.182;24.308;2023-04-10T12:19:13;99188.88;;;13.77;48.63
27840;BME280;15207;42.182;24.308;2023-04-10T12:21:40;99189.41;;;13.90;50.49
27840;BME280;15207;42.182;24.308;2023-04-10T12:24:09;99183.50;;;14.24;51.75
27840;BME280;15207;42.182;24.308;2023-04-10T12:26:35;99191.84;;;14.21;48.07
27840;BME280;15207;42.182;24.308;2023-04-10T12:29:01;99185.88;;;14.27;46.72
27840;BME280;15207;42.182;24.308;2023-04-10T12:31:30;99184.22;;;14.45;47.38
27840;BME280;15207;42.182;24.308;2023-04-10T12:33:57;99179.06;;;14.61;46.22
27840;BME280;15207;42.182;24.308;2023-04-10T12:36:25;99176.09;;;14.83;44.51
27840;BME280;15207;42.182;24.308;2023-04-10T12:38:53;99169.34;;;14.78;43.83
27840;BME280;15207;42.182;24.308;2023-04-10T12:41:24;99171.31;;;14.76;43.02
27840;BME280;15207;42.182;24.308;2023-04-10T12:43:52;99172.88;;;14.51;43.95
27840;BME280;15207;42.182;24.308;2023-04-10T12:46:26;99171.03;;;14.70;44.12
27840;BME280;15207;42.182;24.308;2023-04-10T12:48:52;99167.88;;;15.02;43.67
27840;BME280;15207;42.182;24.308;2023-04-10T12:51:18;99163.34;;;15.03;43.05
27840;BME280;15207;42.182;24.308;2023-04-10T12:53:45;99158.72;;;14.95;44.45
27840;BME280;15207;42.182;24.308;2023-04-10T12:56:11;99154.88;;;14.98;43.59
27840;BME280;15207;42.182;24.308;2023-04-10T12:58:38;99153.09;;;15.06;44.07
27840;BME280;15207;42.182;24.308;2023-04-10T13:01:05;99148.94;;;15.12;43.64
27840;BME280;15207;42.182;24.308;2023-04-10T13:03:34;99149.63;;;14.96;43.64
27840;BME280;15207;42.182;24.308;2023-04-10T13:06:07;99140.13;;;15.10;44.00
27840;BME280;15207;42.182;24.308;2023-04-10T13:08:35;99145.88;;;14.89;43.47
27840;BME280;15207;42.182;24.308;2023-04-10T13:11:01;99137.84;;;14.97;43.46
27840;BME280;15207;42.182;24.308;2023-04-10T13:13:30;99134.69;;;15.02;44.48
27840;BME280;15207;42.182;24.308;2023-04-10T13:16:00;99127.22;;;15.14;43.85
27840;BME280;15207;42.182;24.308;2023-04-10T13:18:26;99121.81;;;15.14;43.32
27840;BME280;15207;42.182;24.308;2023-04-10T13:20:51;99124.91;;;15.19;43.65
27840;BME280;15207;42.182;24.308;2023-04-10T13:23:17;99126.19;;;15.33;43.55
27840;BME280;15207;42.182;24.308;2023-04-10T13:25:43;99117.22;;;15.32;43.77
27840;BME280;15207;42.182;24.308;2023-04-10T13:28:08;99119.50;;;15.45;43.92
27840;BME280;15207;42.182;24.308;2023-04-10T13:30:39;99121.75;;;15.50;43.62
27840;BME280;15207;42.182;24.308;2023-04-10T13:33:04;99121.69;;;15.42;43.43
27840;BME280;15207;42.182;24.308;2023-04-10T13:35:30;99113.66;;;15.50;42.61
27840;BME280;15207;42.182;24.308;2023-04-10T13:37:56;99111.25;;;15.47;43.19